createdAt,value
2019-03-09T00:01:56.564Z,2.50
2019-03-09T00:07:00.210Z,2.37
2019-03-09T00:12:03.619Z,2.47
2019-03-09T00:17:06.684Z,2.52
2019-03-09T00:22:10.122Z,2.70
2019-03-09T00:27:15.162Z,2.50
2019-03-09T00:32:20.470Z,2.80
2019-03-09T00:37:23.950Z,2.90
2019-03-09T00:42:27.314Z,2.57
2019-03-09T00:47:30.713Z,2.50
2019-03-09T00:52:33.776Z,2.37
2019-03-09T00:57:37.251Z,2.67
2019-03-09T01:02:40.648Z,2.63
2019-03-09T01:07:44.041Z,2.57
2019-03-09T01:12:47.675Z,2.83
2019-03-09T01:17:51.404Z,2.50
2019-03-09T01:22:55.119Z,2.70
2019-03-09T01:27:58.513Z,2.93
2019-03-09T01:33:01.904Z,2.80
2019-03-09T01:38:05.386Z,3.50
2019-03-09T01:43:09.112Z,2.70
2019-03-09T01:48:12.510Z,2.37
2019-03-09T01:53:15.914Z,2.47
2019-03-09T01:58:19.642Z,2.60
2019-03-09T02:03:22.737Z,2.33
2019-03-09T02:08:25.796Z,2.27
2019-03-09T02:13:29.474Z,2.50
2019-03-09T02:18:32.538Z,2.40
2019-03-09T02:23:36.210Z,2.30
2019-03-09T02:28:39.605Z,2.20
2019-03-09T02:33:42.947Z,2.23
2019-03-09T02:38:47.989Z,2.30
2019-03-09T02:43:51.379Z,2.20
2019-03-09T02:48:55.131Z,2.00
2019-03-09T02:53:58.454Z,2.10
2019-03-09T02:59:01.850Z,1.90
2019-03-09T03:04:05.585Z,1.70
2019-03-09T03:09:09.147Z,2.00
2019-03-09T03:14:12.609Z,1.60
2019-03-09T03:19:16.013Z,1.30
2019-03-09T03:24:19.396Z,1.57
2019-03-09T03:29:22.823Z,1.40
2019-03-09T03:34:25.925Z,1.40
2019-03-09T03:39:29.361Z,1.30
2019-03-09T03:44:34.441Z,1.20
2019-03-09T03:49:37.822Z,1.10
2019-03-09T03:54:41.219Z,1.20
2019-03-09T03:59:44.607Z,1.20
2019-03-09T04:04:47.686Z,1.10
2019-03-09T04:09:51.028Z,1.00
2019-03-09T04:14:54.713Z,1.00
2019-03-09T04:19:58.042Z,1.10
2019-03-09T04:25:01.466Z,0.93
2019-03-09T04:30:08.047Z,1.00
2019-03-09T04:35:11.748Z,1.00
2019-03-09T04:40:15.990Z,0.70
2019-03-09T04:45:19.318Z,1.00
2019-03-09T04:50:22.719Z,0.90
2019-03-09T04:55:26.434Z,0.80
2019-03-09T05:00:29.837Z,0.80
2019-03-09T05:05:33.570Z,1.10
2019-03-09T05:10:46.419Z,0.90
2019-03-09T05:15:50.158Z,1.10
2019-03-09T05:20:53.895Z,0.80
2019-03-09T05:25:56.974Z,0.70
2019-03-09T05:31:00.678Z,0.80
2019-03-09T05:36:04.098Z,0.70
2019-03-09T05:41:07.820Z,0.70
2019-03-09T05:46:11.274Z,0.90
2019-03-09T05:51:14.954Z,1.00
2019-03-09T05:56:18.390Z,0.80
2019-03-09T06:01:22.090Z,1.10
2019-03-09T06:06:25.178Z,1.00
2019-03-09T06:11:28.814Z,1.10
2019-03-09T06:16:32.537Z,1.30
2019-03-09T06:21:35.958Z,1.40
2019-03-09T06:26:39.383Z,1.50
2019-03-09T06:31:46.071Z,1.60
2019-03-09T06:36:52.213Z,1.80
2019-03-09T06:41:56.831Z,1.93
2019-03-09T06:47:00.218Z,1.83
2019-03-09T06:52:03.634Z,1.83
2019-03-09T06:57:13.780Z,1.60
2019-03-09T07:02:12.095Z,1.70
2019-03-09T07:07:15.174Z,5.60
2019-03-09T07:12:18.582Z,2.13
2019-03-09T07:17:21.925Z,1.70
2019-03-09T07:22:25.397Z,1.83
2019-03-09T07:27:29.051Z,2.20
2019-03-09T07:32:32.779Z,1.70
2019-03-09T07:37:37.067Z,1.80
2019-03-09T07:42:40.573Z,1.50
2019-03-09T07:47:43.990Z,2.10
2019-03-09T07:52:47.368Z,2.25
2019-03-09T07:57:50.846Z,1.93
2019-03-09T08:02:54.599Z,2.00
2019-03-09T08:07:57.673Z,1.90
2019-03-09T08:13:01.358Z,1.70
2019-03-09T08:18:04.751Z,1.90
2019-03-09T08:23:08.460Z,1.70
2019-03-09T08:28:11.856Z,1.70
2019-03-09T08:33:15.494Z,1.83
2019-03-09T08:38:18.897Z,1.60
2019-03-09T08:43:21.958Z,1.67
2019-03-09T08:48:25.385Z,1.50
2019-03-09T08:53:28.467Z,1.60
2019-03-09T08:58:31.897Z,1.30
2019-03-09T09:03:35.294Z,1.70
2019-03-09T09:08:38.750Z,1.87
2019-03-09T09:13:42.506Z,1.57
2019-03-09T09:18:46.233Z,1.80
2019-03-09T09:23:49.627Z,1.42
2019-03-09T09:28:53.030Z,1.77
2019-03-09T09:33:58.295Z,1.93
2019-03-09T09:39:01.491Z,2.00
2019-03-09T09:44:05.293Z,1.67
2019-03-09T09:49:08.353Z,1.60
2019-03-09T09:54:11.695Z,1.90
2019-03-09T09:59:15.106Z,1.67
2019-03-09T10:04:18.516Z,2.00
2019-03-09T10:09:21.582Z,1.70
2019-03-09T10:14:24.642Z,2.00
2019-03-09T10:19:28.043Z,1.77
2019-03-09T10:24:31.750Z,1.70
2019-03-09T10:29:34.850Z,1.40
2019-03-09T10:34:38.287Z,1.50
2019-03-09T10:39:42.002Z,1.33
2019-03-09T10:44:45.323Z,1.50
2019-03-09T10:49:48.784Z,1.30
2019-03-09T10:54:52.563Z,1.53
2019-03-09T10:59:56.274Z,1.40
2019-03-09T11:04:59.996Z,1.20
2019-03-09T11:10:04.943Z,1.10
2019-03-09T11:15:08.270Z,1.53
2019-03-09T11:20:14.124Z,1.20
2019-03-09T11:25:18.675Z,1.10
2019-03-09T11:30:23.287Z,1.30
2019-03-09T11:35:27.034Z,1.20
2019-03-09T11:40:30.765Z,0.95
2019-03-09T11:45:34.084Z,1.40
2019-03-09T11:50:37.796Z,1.40
2019-03-09T11:55:41.199Z,1.23
2019-03-09T12:00:46.270Z,1.50
2019-03-09T12:05:49.645Z,1.47
2019-03-09T12:10:53.083Z,1.50
2019-03-09T12:15:59.090Z,1.37
2019-03-09T12:21:01.486Z,1.10
2019-03-09T12:26:05.162Z,1.20
2019-03-09T12:31:08.904Z,1.50
2019-03-09T12:36:12.618Z,1.10
2019-03-09T12:41:15.680Z,1.10
2019-03-09T12:46:18.741Z,1.70
2019-03-09T12:51:22.765Z,1.33
2019-03-09T12:56:26.066Z,1.40
2019-03-09T13:01:29.464Z,1.30
2019-03-09T13:06:32.522Z,1.20
2019-03-09T13:11:36.218Z,1.00
2019-03-09T13:16:39.616Z,1.33
2019-03-09T13:21:42.682Z,1.23
2019-03-09T13:26:46.106Z,1.17
2019-03-09T13:31:49.166Z,1.33
2019-03-09T13:36:52.594Z,1.30
2019-03-09T13:41:56.724Z,1.07
2019-03-09T13:47:00.122Z,1.33
2019-03-09T13:52:03.454Z,1.43
2019-03-09T13:57:06.765Z,1.80
2019-03-09T14:02:10.474Z,1.67
2019-03-09T14:07:13.796Z,1.77
2019-03-09T14:12:17.505Z,1.80
2019-03-09T14:17:20.827Z,2.10
2019-03-09T14:22:24.539Z,2.50
2019-03-09T14:27:28.262Z,1.93
2019-03-09T14:32:31.673Z,2.30
2019-03-09T14:37:35.807Z,2.67
2019-03-09T14:42:38.865Z,3.10
2019-03-09T14:47:42.267Z,3.37
2019-03-09T14:52:45.718Z,3.90
2019-03-09T14:57:49.369Z,3.73
2019-03-09T15:02:52.498Z,3.98
2019-03-09T15:07:56.207Z,3.37
2019-03-09T15:12:59.936Z,3.50
2019-03-09T15:18:03.248Z,3.37
2019-03-09T15:23:06.638Z,3.77
2019-03-09T15:28:10.120Z,4.23
2019-03-09T15:33:13.185Z,3.70
2019-03-09T15:38:16.498Z,3.80
2019-03-09T15:43:20.249Z,3.50
2019-03-09T15:48:23.723Z,3.80
2019-03-09T15:53:27.370Z,4.30
2019-03-09T15:58:30.522Z,3.83
2019-03-09T16:03:33.926Z,3.50
2019-03-09T16:08:37.589Z,3.87
2019-03-09T16:13:41.347Z,3.87
2019-03-09T16:18:44.755Z,3.92
2019-03-09T16:23:48.155Z,3.53
2019-03-09T16:28:52.512Z,3.97
2019-03-09T16:33:55.937Z,3.70
2019-03-09T16:38:59.316Z,3.33
2019-03-09T16:44:03.559Z,3.93
2019-03-09T16:49:06.876Z,3.73
2019-03-09T16:54:10.523Z,3.00
2019-03-09T16:59:13.597Z,3.57
2019-03-09T17:04:16.655Z,3.87
2019-03-09T17:09:20.046Z,3.80
2019-03-09T17:14:23.467Z,4.60
2019-03-09T17:19:26.566Z,4.50
2019-03-09T17:24:29.941Z,3.70
2019-03-09T17:29:33.366Z,3.63
2019-03-09T17:34:36.779Z,3.93
2019-03-09T17:39:40.490Z,4.03
2019-03-09T17:44:43.899Z,3.83
2019-03-09T17:49:46.961Z,3.90
2019-03-09T17:54:51.706Z,3.67
2019-03-09T17:59:54.822Z,3.87
2019-03-09T18:04:58.193Z,3.90
2019-03-09T18:10:01.523Z,4.23
2019-03-09T18:15:07.355Z,4.57
2019-03-09T18:20:10.689Z,7.00
2019-03-09T18:25:13.754Z,6.10
2019-03-09T18:30:17.921Z,5.20
2019-03-09T18:35:21.239Z,6.07
2019-03-09T18:40:24.898Z,4.50
2019-03-09T18:45:27.969Z,5.50
2019-03-09T18:50:31.678Z,5.73
2019-03-09T18:55:35.403Z,6.13
2019-03-09T19:00:39.130Z,5.37
2019-03-09T19:05:42.446Z,4.67
2019-03-09T19:10:46.154Z,5.03
2019-03-09T19:15:49.555Z,5.93
2019-03-09T19:20:52.897Z,5.33
2019-03-09T19:25:55.973Z,13.20
2019-03-09T19:30:59.063Z,6.17
2019-03-09T19:36:02.104Z,5.07
2019-03-09T19:41:05.429Z,4.97
2019-03-09T19:46:09.070Z,5.83
2019-03-09T19:51:12.470Z,6.60
2019-03-09T19:56:15.545Z,4.30
2019-03-09T20:01:18.947Z,5.30
2019-03-09T20:06:22.690Z,5.03
2019-03-09T20:11:26.093Z,4.93
2019-03-09T20:16:29.734Z,5.70
2019-03-09T20:21:33.453Z,7.13
2019-03-09T20:26:37.169Z,5.92
2019-03-09T20:31:40.897Z,6.10
2019-03-09T20:36:44.343Z,7.60
2019-03-09T20:41:47.740Z,8.60
2019-03-09T20:46:51.138Z,6.57
2019-03-09T20:51:54.475Z,4.73
2019-03-09T20:56:57.530Z,5.90
2019-03-09T21:02:01.188Z,5.00
2019-03-09T21:07:04.537Z,5.70
2019-03-09T21:12:07.589Z,5.80
2019-03-09T21:17:10.990Z,5.57
2019-03-09T21:22:14.436Z,5.00
2019-03-09T21:27:17.756Z,4.67
2019-03-09T21:32:21.151Z,4.53
2019-03-09T21:37:26.809Z,8.27
2019-03-09T21:42:30.346Z,4.83
2019-03-09T21:47:33.738Z,5.30
2019-03-09T21:52:36.812Z,5.17
2019-03-09T21:57:40.230Z,5.87
2019-03-09T22:02:43.908Z,5.13
2019-03-09T22:07:47.293Z,4.97
2019-03-09T22:12:50.934Z,4.47
2019-03-09T22:17:54.349Z,4.70
2019-03-09T22:22:57.741Z,5.33
2019-03-09T22:28:00.851Z,4.80
2019-03-09T22:33:04.856Z,4.27
2019-03-09T22:38:08.433Z,4.80
2019-03-09T22:43:12.143Z,5.03
2019-03-09T22:48:15.882Z,4.90
2019-03-09T22:53:20.811Z,5.17
2019-03-09T22:58:23.895Z,4.93
2019-03-09T23:03:29.078Z,5.33
2019-03-09T23:08:32.369Z,5.93
2019-03-09T23:13:35.770Z,5.50
2019-03-09T23:18:39.171Z,5.60
2019-03-09T23:23:42.550Z,5.50
2019-03-09T23:28:46.486Z,5.90
2019-03-09T23:33:49.879Z,6.00
2019-03-09T23:38:53.601Z,5.90
2019-03-09T23:43:57.323Z,6.47
2019-03-09T23:49:00.757Z,5.73
2019-03-09T23:54:03.874Z,6.10
2019-03-09T23:59:07.378Z,7.03
